sensor_id;sensor_type;location;lat;lon;timestamp;P1;durP1;ratioP1;P2;durP2;ratioP2
49592;SDS011;35499;51.482;4.264;2023-02-18T00:00:57;39.58;;;12.90;;
49592;SDS011;35499;51.482;4.264;2023-02-18T00:03:23;38.95;;;13.48;;
49592;SDS011;35499;51.482;4.264;2023-02-18T00:05:50;40.08;;;12.50;;
49592;SDS011;35499;51.482;4.264;2023-02-18T00:08:16;40.10;;;13.75;;
49592;SDS011;35499;51.482;4.264;2023-02-18T00:10:41;34.50;;;12.73;;
49592;SDS011;35499;51.482;4.264;2023-02-18T00:13:07;31.88;;;11.18;;
49592;SDS011;35499;51.482;4.264;2023-02-18T00:15:36;30.77;;;11.27;;
49592;SDS011;35499;51.482;4.264;2023-02-18T00:18:02;32.08;;;10.27;;
49592;SDS011;35499;51.482;4.264;2023-02-18T00:20:28;29.92;;;10.93;;
49592;SDS011;35499;51.482;4.264;2023-02-18T00:22:53;27.73;;;9.68;;
49592;SDS011;35499;51.482;4.264;2023-02-18T00:25:19;33.47;;;10.98;;
49592;SDS011;35499;51.482;4.264;2023-02-18T00:27:44;25.17;;;8.88;;
49592;SDS011;35499;51.482;4.264;2023-02-18T00:30:10;24.90;;;10.25;;
49592;SDS011;35499;51.482;4.264;2023-02-18T00:32:35;22.92;;;9.73;;
49592;SDS011;35499;51.482;4.264;2023-02-18T00:35:01;26.93;;;9.03;;
49592;SDS011;35499;51.482;4.264;2023-02-18T00:37:26;28.75;;;9.35;;
49592;SDS011;35499;51.482;4.264;2023-02-18T00:39:52;31.35;;;10.45;;
49592;SDS011;35499;51.482;4.264;2023-02-18T00:42:19;27.65;;;8.98;;
49592;SDS011;35499;51.482;4.264;2023-02-18T00:44:44;23.65;;;8.77;;
49592;SDS011;35499;51.482;4.264;2023-02-18T00:47:10;28.52;;;9.65;;
49592;SDS011;35499;51.482;4.264;2023-02-18T00:49:35;27.90;;;9.40;;
49592;SDS011;35499;51.482;4.264;2023-02-18T00:52:01;22.58;;;8.40;;
49592;SDS011;35499;51.482;4.264;2023-02-18T00:54:26;25.50;;;9.53;;
49592;SDS011;35499;51.482;4.264;2023-02-18T00:56:51;26.00;;;9.68;;
49592;SDS011;35499;51.482;4.264;2023-02-18T00:59:17;27.53;;;11.07;;
49592;SDS011;35499;51.482;4.264;2023-02-18T01:01:42;25.47;;;9.13;;
49592;SDS011;35499;51.482;4.264;2023-02-18T01:04:07;25.08;;;9.25;;
49592;SDS011;35499;51.482;4.264;2023-02-18T01:06:33;25.47;;;9.63;;
49592;SDS011;35499;51.482;4.264;2023-02-18T01:08:58;29.85;;;10.20;;
49592;SDS011;35499;51.482;4.264;2023-02-18T01:11:23;21.67;;;8.87;;
49592;SDS011;35499;51.482;4.264;2023-02-18T01:13:49;24.88;;;9.15;;
49592;SDS011;35499;51.482;4.264;2023-02-18T01:16:14;26.60;;;10.37;;
49592;SDS011;35499;51.482;4.264;2023-02-18T01:18:41;28.40;;;10.27;;
49592;SDS011;35499;51.482;4.264;2023-02-18T01:21:06;27.92;;;9.02;;
49592;SDS011;35499;51.482;4.264;2023-02-18T01:23:33;25.75;;;10.15;;
49592;SDS011;35499;51.482;4.264;2023-02-18T01:25:59;25.65;;;8.88;;
49592;SDS011;35499;51.482;4.264;2023-02-18T01:28:24;27.07;;;9.27;;
49592;SDS011;35499;51.482;4.264;2023-02-18T01:30:51;29.45;;;8.43;;
49592;SDS011;35499;51.482;4.264;2023-02-18T01:33:18;25.63;;;9.82;;
49592;SDS011;35499;51.482;4.264;2023-02-18T01:35:44;24.40;;;9.55;;
49592;SDS011;35499;51.482;4.264;2023-02-18T01:38:09;21.77;;;9.48;;
49592;SDS011;35499;51.482;4.264;2023-02-18T01:40:35;24.70;;;9.38;;
49592;SDS011;35499;51.482;4.264;2023-02-18T01:43:10;26.40;;;9.20;;
49592;SDS011;35499;51.482;4.264;2023-02-18T01:48:16;23.58;;;8.18;;
49592;SDS011;35499;51.482;4.264;2023-02-18T01:50:50;29.50;;;10.57;;
49592;SDS011;35499;51.482;4.264;2023-02-18T01:53:22;30.38;;;10.98;;
49592;SDS011;35499;51.482;4.264;2023-02-18T01:55:52;27.65;;;10.10;;
49592;SDS011;35499;51.482;4.264;2023-02-18T01:58:17;28.58;;;10.10;;
49592;SDS011;35499;51.482;4.264;2023-02-18T02:00:44;23.92;;;9.48;;
49592;SDS011;35499;51.482;4.264;2023-02-18T02:03:09;21.67;;;8.23;;
49592;SDS011;35499;51.482;4.264;2023-02-18T02:05:35;26.27;;;9.20;;
49592;SDS011;35499;51.482;4.264;2023-02-18T02:08:00;21.47;;;8.97;;
49592;SDS011;35499;51.482;4.264;2023-02-18T02:10:31;19.95;;;8.50;;
49592;SDS011;35499;51.482;4.264;2023-02-18T02:13:10;17.05;;;6.55;;
49592;SDS011;35499;51.482;4.264;2023-02-18T02:21:13;20.95;;;7.43;;
49592;SDS011;35499;51.482;4.264;2023-02-18T02:24:07;21.52;;;7.72;;
49592;SDS011;35499;51.482;4.264;2023-02-18T02:30:19;23.38;;;9.18;;
49592;SDS011;35499;51.482;4.264;2023-02-18T02:33:18;20.23;;;8.55;;
49592;SDS011;35499;51.482;4.264;2023-02-18T02:39:16;20.50;;;8.13;;
49592;SDS011;35499;51.482;4.264;2023-02-18T02:44:40;22.38;;;8.00;;
49592;SDS011;35499;51.482;4.264;2023-02-18T02:50:13;24.30;;;9.00;;
49592;SDS011;35499;51.482;4.264;2023-02-18T02:52:48;23.15;;;8.73;;
49592;SDS011;35499;51.482;4.264;2023-02-18T02:55:16;24.50;;;8.68;;
49592;SDS011;35499;51.482;4.264;2023-02-18T02:57:43;17.10;;;6.80;;
49592;SDS011;35499;51.482;4.264;2023-02-18T03:00:12;22.48;;;9.20;;
49592;SDS011;35499;51.482;4.264;2023-02-18T03:02:54;22.48;;;8.93;;
49592;SDS011;35499;51.482;4.264;2023-02-18T03:05:32;18.00;;;7.35;;
49592;SDS011;35499;51.482;4.264;2023-02-18T03:08:12;16.88;;;6.07;;
49592;SDS011;35499;51.482;4.264;2023-02-18T03:11:03;13.88;;;6.38;;
49592;SDS011;35499;51.482;4.264;2023-02-18T03:13:34;16.10;;;5.53;;
49592;SDS011;35499;51.482;4.264;2023-02-18T03:19:22;11.55;;;4.78;;
49592;SDS011;35499;51.482;4.264;2023-02-18T03:21:54;11.23;;;4.47;;
49592;SDS011;35499;51.482;4.264;2023-02-18T03:24:24;14.73;;;4.45;;
49592;SDS011;35499;51.482;4.264;2023-02-18T03:26:55;15.75;;;5.40;;
49592;SDS011;35499;51.482;4.264;2023-02-18T03:29:24;13.90;;;5.43;;
49592;SDS011;35499;51.482;4.264;2023-02-18T03:31:53;14.38;;;5.47;;
49592;SDS011;35499;51.482;4.264;2023-02-18T03:34:25;16.98;;;5.88;;
49592;SDS011;35499;51.482;4.264;2023-02-18T03:36:54;11.80;;;4.35;;
49592;SDS011;35499;51.482;4.264;2023-02-18T03:39:22;16.95;;;6.13;;
49592;SDS011;35499;51.482;4.264;2023-02-18T03:41:51;13.27;;;4.50;;
49592;SDS011;35499;51.482;4.264;2023-02-18T03:44:17;11.02;;;4.38;;
49592;SDS011;35499;51.482;4.264;2023-02-18T03:46:42;9.70;;;3.47;;
49592;SDS011;35499;51.482;4.264;2023-02-18T03:49:10;16.73;;;5.05;;
49592;SDS011;35499;51.482;4.264;2023-02-18T03:51:37;16.50;;;5.70;;
49592;SDS011;35499;51.482;4.264;2023-02-18T03:54:02;16.20;;;5.35;;
49592;SDS011;35499;51.482;4.264;2023-02-18T03:56:28;16.25;;;4.75;;
49592;SDS011;35499;51.482;4.264;2023-02-18T03:58:53;14.67;;;4.50;;
49592;SDS011;35499;51.482;4.264;2023-02-18T04:01:18;15.30;;;4.93;;
49592;SDS011;35499;51.482;4.264;2023-02-18T04:03:44;17.52;;;5.22;;
49592;SDS011;35499;51.482;4.264;2023-02-18T04:06:10;18.23;;;5.80;;
49592;SDS011;35499;51.482;4.264;2023-02-18T04:08:36;16.30;;;4.43;;
49592;SDS011;35499;51.482;4.264;2023-02-18T04:11:01;15.17;;;5.20;;
49592;SDS011;35499;51.482;4.264;2023-02-18T04:13:27;14.60;;;4.75;;
49592;SDS011;35499;51.482;4.264;2023-02-18T04:15:52;13.73;;;4.70;;
49592;SDS011;35499;51.482;4.264;2023-02-18T04:18:17;16.37;;;4.63;;
49592;SDS011;35499;51.482;4.264;2023-02-18T04:20:43;14.73;;;4.20;;
49592;SDS011;35499;51.482;4.264;2023-02-18T04:23:10;17.25;;;4.60;;
49592;SDS011;35499;51.482;4.264;2023-02-18T04:25:35;14.82;;;5.00;;
49592;SDS011;35499;51.482;4.264;2023-02-18T04:28:01;12.50;;;3.60;;
49592;SDS011;35499;51.482;4.264;2023-02-18T04:30:26;17.73;;;6.00;;
49592;SDS011;35499;51.482;4.264;2023-02-18T04:32:52;14.55;;;4.63;;
49592;SDS011;35499;51.482;4.264;2023-02-18T04:35:18;13.82;;;4.65;;
49592;SDS011;35499;51.482;4.264;2023-02-18T04:37:43;18.25;;;5.63;;
49592;SDS011;35499;51.482;4.264;2023-02-18T04:40:08;16.13;;;5.10;;
49592;SDS011;35499;51.482;4.264;2023-02-18T04:42:34;15.10;;;4.30;;
49592;SDS011;35499;51.482;4.264;2023-02-18T04:45:00;14.60;;;4.57;;
49592;SDS011;35499;51.482;4.264;2023-02-18T04:47:25;13.30;;;4.90;;
49592;SDS011;35499;51.482;4.264;2023-02-18T04:49:51;13.65;;;4.40;;
49592;SDS011;35499;51.482;4.264;2023-02-18T04:52:16;21.73;;;5.87;;
49592;SDS011;35499;51.482;4.264;2023-02-18T04:54:42;13.63;;;4.47;;
49592;SDS011;35499;51.482;4.264;2023-02-18T04:57:07;18.90;;;5.67;;
49592;SDS011;35499;51.482;4.264;2023-02-18T04:59:32;19.10;;;5.35;;
49592;SDS011;35499;51.482;4.264;2023-02-18T05:01:58;24.97;;;6.87;;
49592;SDS011;35499;51.482;4.264;2023-02-18T05:04:23;18.60;;;5.20;;
49592;SDS011;35499;51.482;4.264;2023-02-18T05:06:48;21.45;;;6.30;;
49592;SDS011;35499;51.482;4.264;2023-02-18T05:09:14;30.90;;;8.17;;
49592;SDS011;35499;51.482;4.264;2023-02-18T05:11:39;24.15;;;7.03;;
49592;SDS011;35499;51.482;4.264;2023-02-18T05:14:04;27.08;;;8.50;;
49592;SDS011;35499;51.482;4.264;2023-02-18T05:16:30;21.83;;;6.50;;
49592;SDS011;35499;51.482;4.264;2023-02-18T05:18:56;22.15;;;6.35;;
49592;SDS011;35499;51.482;4.264;2023-02-18T05:21:21;21.88;;;6.55;;
49592;SDS011;35499;51.482;4.264;2023-02-18T05:23:46;25.53;;;6.43;;
49592;SDS011;35499;51.482;4.264;2023-02-18T05:26:11;22.63;;;6.40;;
49592;SDS011;35499;51.482;4.264;2023-02-18T05:28:37;16.13;;;5.77;;
49592;SDS011;35499;51.482;4.264;2023-02-18T05:31:02;29.80;;;7.80;;
49592;SDS011;35499;51.482;4.264;2023-02-18T05:33:28;25.08;;;8.07;;
49592;SDS011;35499;51.482;4.264;2023-02-18T05:35:53;24.92;;;7.25;;
49592;SDS011;35499;51.482;4.264;2023-02-18T05:38:18;31.07;;;8.67;;
49592;SDS011;35499;51.482;4.264;2023-02-18T05:40:44;21.10;;;6.78;;
49592;SDS011;35499;51.482;4.264;2023-02-18T05:43:10;29.40;;;8.77;;
49592;SDS011;35499;51.482;4.264;2023-02-18T05:45:35;21.20;;;7.17;;
49592;SDS011;35499;51.482;4.264;2023-02-18T05:48:00;25.67;;;6.37;;
49592;SDS011;35499;51.482;4.264;2023-02-18T05:50:26;13.53;;;4.50;;
49592;SDS011;35499;51.482;4.264;2023-02-18T05:52:51;20.67;;;6.97;;
49592;SDS011;35499;51.482;4.264;2023-02-18T05:55:16;14.77;;;4.85;;
49592;SDS011;35499;51.482;4.264;2023-02-18T05:57:42;12.18;;;4.60;;
49592;SDS011;35499;51.482;4.264;2023-02-18T06:00:07;12.80;;;4.60;;
49592;SDS011;35499;51.482;4.264;2023-02-18T06:02:34;13.38;;;4.07;;
49592;SDS011;35499;51.482;4.264;2023-02-18T06:05:00;9.23;;;3.88;;
49592;SDS011;35499;51.482;4.264;2023-02-18T06:07:25;10.27;;;3.65;;
49592;SDS011;35499;51.482;4.264;2023-02-18T06:09:50;12.45;;;3.97;;
49592;SDS011;35499;51.482;4.264;2023-02-18T06:12:16;16.80;;;4.65;;
49592;SDS011;35499;51.482;4.264;2023-02-18T06:14:41;9.47;;;3.30;;
49592;SDS011;35499;51.482;4.264;2023-02-18T06:17:10;14.00;;;3.57;;
49592;SDS011;35499;51.482;4.264;2023-02-18T06:19:37;14.40;;;3.83;;
49592;SDS011;35499;51.482;4.264;2023-02-18T06:22:02;11.40;;;2.90;;
49592;SDS011;35499;51.482;4.264;2023-02-18T06:24:28;9.10;;;3.13;;
49592;SDS011;35499;51.482;4.264;2023-02-18T06:26:53;10.80;;;3.03;;
49592;SDS011;35499;51.482;4.264;2023-02-18T06:29:18;12.60;;;3.00;;
49592;SDS011;35499;51.482;4.264;2023-02-18T06:31:44;20.93;;;4.33;;
49592;SDS011;35499;51.482;4.264;2023-02-18T06:34:09;12.63;;;4.77;;
49592;SDS011;35499;51.482;4.264;2023-02-18T06:36:34;20.70;;;4.07;;
49592;SDS011;35499;51.482;4.264;2023-02-18T06:39:01;11.07;;;4.00;;
49592;SDS011;35499;51.482;4.264;2023-02-18T06:41:28;14.63;;;3.38;;
49592;SDS011;35499;51.482;4.264;2023-02-18T06:43:53;14.67;;;4.50;;
49592;SDS011;35499;51.482;4.264;2023-02-18T06:46:19;17.43;;;4.03;;
49592;SDS011;35499;51.482;4.264;2023-02-18T06:48:44;14.68;;;3.70;;
49592;SDS011;35499;51.482;4.264;2023-02-18T06:51:09;7.87;;;2.97;;
49592;SDS011;35499;51.482;4.264;2023-02-18T06:53:35;8.32;;;1.95;;
49592;SDS011;35499;51.482;4.264;2023-02-18T06:56:00;9.10;;;4.00;;
49592;SDS011;35499;51.482;4.264;2023-02-18T06:58:26;11.82;;;2.83;;
49592;SDS011;35499;51.482;4.264;2023-02-18T07:00:51;14.40;;;4.40;;
49592;SDS011;35499;51.482;4.264;2023-02-18T07:03:16;12.40;;;3.25;;
49592;SDS011;35499;51.482;4.264;2023-02-18T07:05:42;15.90;;;3.97;;
49592;SDS011;35499;51.482;4.264;2023-02-18T07:08:07;17.60;;;3.37;;
49592;SDS011;35499;51.482;4.264;2023-02-18T07:10:33;14.15;;;3.50;;
49592;SDS011;35499;51.482;4.264;2023-02-18T07:12:58;12.23;;;3.17;;
49592;SDS011;35499;51.482;4.264;2023-02-18T07:15:24;13.60;;;3.10;;
49592;SDS011;35499;51.482;4.264;2023-02-18T07:17:51;15.07;;;2.92;;
49592;SDS011;35499;51.482;4.264;2023-02-18T07:20:16;13.43;;;2.83;;
49592;SDS011;35499;51.482;4.264;2023-02-18T07:22:42;14.38;;;3.70;;
49592;SDS011;35499;51.482;4.264;2023-02-18T07:25:07;15.23;;;2.63;;
49592;SDS011;35499;51.482;4.264;2023-02-18T07:27:33;10.70;;;2.87;;
49592;SDS011;35499;51.482;4.264;2023-02-18T07:29:58;15.97;;;3.97;;
49592;SDS011;35499;51.482;4.264;2023-02-18T07:32:23;8.95;;;1.83;;
49592;SDS011;35499;51.482;4.264;2023-02-18T07:34:50;6.60;;;2.13;;
49592;SDS011;35499;51.482;4.264;2023-02-18T07:37:16;12.10;;;2.47;;
49592;SDS011;35499;51.482;4.264;2023-02-18T07:39:41;11.37;;;2.10;;
49592;SDS011;35499;51.482;4.264;2023-02-18T07:42:08;11.77;;;2.10;;
49592;SDS011;35499;51.482;4.264;2023-02-18T07:44:34;8.02;;;1.63;;
49592;SDS011;35499;51.482;4.264;2023-02-18T07:47:00;8.57;;;1.65;;
49592;SDS011;35499;51.482;4.264;2023-02-18T07:49:26;10.45;;;2.13;;
49592;SDS011;35499;51.482;4.264;2023-02-18T07:51:51;22.42;;;2.10;;
49592;SDS011;35499;51.482;4.264;2023-02-18T07:54:17;5.88;;;1.55;;
49592;SDS011;35499;51.482;4.264;2023-02-18T07:56:42;12.07;;;1.80;;
49592;SDS011;35499;51.482;4.264;2023-02-18T07:59:09;9.93;;;1.60;;
49592;SDS011;35499;51.482;4.264;2023-02-18T08:01:34;18.70;;;1.83;;
49592;SDS011;35499;51.482;4.264;2023-02-18T08:04:00;10.63;;;1.43;;
49592;SDS011;35499;51.482;4.264;2023-02-18T08:06:27;7.33;;;1.37;;
49592;SDS011;35499;51.482;4.264;2023-02-18T08:08:57;6.78;;;1.98;;
49592;SDS011;35499;51.482;4.264;2023-02-18T08:11:22;6.90;;;1.30;;
49592;SDS011;35499;51.482;4.264;2023-02-18T08:13:48;6.18;;;1.65;;
49592;SDS011;35499;51.482;4.264;2023-02-18T08:16:14;9.05;;;1.65;;
49592;SDS011;35499;51.482;4.264;2023-02-18T08:18:40;7.93;;;1.35;;
49592;SDS011;35499;51.482;4.264;2023-02-18T08:21:05;10.75;;;1.65;;
49592;SDS011;35499;51.482;4.264;2023-02-18T08:23:31;13.93;;;2.10;;
49592;SDS011;35499;51.482;4.264;2023-02-18T08:25:56;11.33;;;2.07;;
49592;SDS011;35499;51.482;4.264;2023-02-18T08:28:21;11.20;;;2.00;;
49592;SDS011;35499;51.482;4.264;2023-02-18T08:30:48;13.75;;;1.92;;
49592;SDS011;35499;51.482;4.264;2023-02-18T08:33:15;7.65;;;1.80;;
49592;SDS011;35499;51.482;4.264;2023-02-18T08:35:41;8.90;;;1.75;;
49592;SDS011;35499;51.482;4.264;2023-02-18T08:38:08;7.13;;;1.48;;
49592;SDS011;35499;51.482;4.264;2023-02-18T08:40:33;9.67;;;1.40;;
49592;SDS011;35499;51.482;4.264;2023-02-18T08:42:58;11.23;;;2.13;;
49592;SDS011;35499;51.482;4.264;2023-02-18T08:45:24;10.90;;;1.77;;
49592;SDS011;35499;51.482;4.264;2023-02-18T08:47:49;11.18;;;1.73;;
49592;SDS011;35499;51.482;4.264;2023-02-18T08:50:15;5.78;;;1.33;;
49592;SDS011;35499;51.482;4.264;2023-02-18T08:52:40;8.27;;;0.95;;
49592;SDS011;35499;51.482;4.264;2023-02-18T08:55:06;10.05;;;1.92;;
49592;SDS011;35499;51.482;4.264;2023-02-18T08:57:31;5.13;;;0.98;;
49592;SDS011;35499;51.482;4.264;2023-02-18T08:59:57;5.22;;;0.98;;
49592;SDS011;35499;51.482;4.264;2023-02-18T09:02:22;7.10;;;1.00;;
49592;SDS011;35499;51.482;4.264;2023-02-18T09:04:47;10.15;;;1.38;;
49592;SDS011;35499;51.482;4.264;2023-02-18T09:07:13;5.17;;;1.03;;
49592;SDS011;35499;51.482;4.264;2023-02-18T09:09:38;5.18;;;1.35;;
49592;SDS011;35499;51.482;4.264;2023-02-18T09:12:03;6.03;;;0.80;;
49592;SDS011;35499;51.482;4.264;2023-02-18T09:14:29;5.20;;;1.40;;
49592;SDS011;35499;51.482;4.264;2023-02-18T09:16:55;4.77;;;0.90;;
49592;SDS011;35499;51.482;4.264;2023-02-18T09:19:22;7.15;;;1.17;;
49592;SDS011;35499;51.482;4.264;2023-02-18T09:21:47;5.50;;;1.15;;
49592;SDS011;35499;51.482;4.264;2023-02-18T09:24:13;5.73;;;0.70;;
49592;SDS011;35499;51.482;4.264;2023-02-18T09:26:38;6.60;;;1.03;;
49592;SDS011;35499;51.482;4.264;2023-02-18T09:29:04;4.95;;;1.27;;
49592;SDS011;35499;51.482;4.264;2023-02-18T09:31:29;4.80;;;0.90;;
49592;SDS011;35499;51.482;4.264;2023-02-18T09:33:59;4.57;;;1.20;;
49592;SDS011;35499;51.482;4.264;2023-02-18T09:36:26;3.95;;;0.80;;
49592;SDS011;35499;51.482;4.264;2023-02-18T09:38:52;6.47;;;1.15;;
49592;SDS011;35499;51.482;4.264;2023-02-18T09:44:04;6.80;;;2.20;;
49592;SDS011;35499;51.482;4.264;2023-02-18T09:49:03;7.40;;;1.02;;
49592;SDS011;35499;51.482;4.264;2023-02-18T09:51:32;7.20;;;2.00;;
49592;SDS011;35499;51.482;4.264;2023-02-18T09:53:58;6.60;;;2.03;;
49592;SDS011;35499;51.482;4.264;2023-02-18T09:56:27;7.22;;;1.63;;
49592;SDS011;35499;51.482;4.264;2023-02-18T09:58:56;7.28;;;1.52;;
49592;SDS011;35499;51.482;4.264;2023-02-18T10:04:35;9.68;;;2.05;;
49592;SDS011;35499;51.482;4.264;2023-02-18T10:07:04;8.23;;;2.17;;
49592;SDS011;35499;51.482;4.264;2023-02-18T10:09:32;9.40;;;1.95;;
49592;SDS011;35499;51.482;4.264;2023-02-18T10:12:21;9.73;;;2.67;;
49592;SDS011;35499;51.482;4.264;2023-02-18T10:14:53;8.90;;;3.58;;
49592;SDS011;35499;51.482;4.264;2023-02-18T10:17:22;6.47;;;2.08;;
49592;SDS011;35499;51.482;4.264;2023-02-18T10:19:50;7.07;;;2.03;;
49592;SDS011;35499;51.482;4.264;2023-02-18T10:22:17;8.90;;;2.40;;
49592;SDS011;35499;51.482;4.264;2023-02-18T10:27:22;8.48;;;2.17;;
49592;SDS011;35499;51.482;4.264;2023-02-18T10:32:16;2.75;;;1.10;;
49592;SDS011;35499;51.482;4.264;2023-02-18T10:40:17;9.20;;;1.85;;
49592;SDS011;35499;51.482;4.264;2023-02-18T10:42:58;8.13;;;2.20;;
49592;SDS011;35499;51.482;4.264;2023-02-18T10:48:26;5.95;;;1.55;;
49592;SDS011;35499;51.482;4.264;2023-02-18T10:51:27;9.20;;;2.65;;
49592;SDS011;35499;51.482;4.264;2023-02-18T10:53:54;6.97;;;1.92;;
49592;SDS011;35499;51.482;4.264;2023-02-18T10:56:37;6.72;;;1.92;;
49592;SDS011;35499;51.482;4.264;2023-02-18T10:59:08;8.15;;;2.15;;
49592;SDS011;35499;51.482;4.264;2023-02-18T11:01:54;11.68;;;2.60;;
49592;SDS011;35499;51.482;4.264;2023-02-18T11:04:37;4.00;;;2.20;;
49592;SDS011;35499;51.482;4.264;2023-02-18T11:09:57;9.20;;;2.40;;
49592;SDS011;35499;51.482;4.264;2023-02-18T11:12:29;7.05;;;2.22;;
49592;SDS011;35499;51.482;4.264;2023-02-18T11:17:33;5.67;;;1.93;;
49592;SDS011;35499;51.482;4.264;2023-02-18T11:20:23;8.77;;;2.55;;
49592;SDS011;35499;51.482;4.264;2023-02-18T11:22:51;7.20;;;2.42;;
49592;SDS011;35499;51.482;4.264;2023-02-18T11:28:38;7.15;;;1.63;;
49592;SDS011;35499;51.482;4.264;2023-02-18T11:30:46;8.73;;;2.25;;
49592;SDS011;35499;51.482;4.264;2023-02-18T11:35:50;4.50;;;2.00;;
49592;SDS011;35499;51.482;4.264;2023-02-18T11:38:37;10.00;;;1.60;;
49592;SDS011;35499;51.482;4.264;2023-02-18T11:43:41;8.75;;;1.63;;
49592;SDS011;35499;51.482;4.264;2023-02-18T11:46:10;6.53;;;1.38;;
49592;SDS011;35499;51.482;4.264;2023-02-18T11:48:47;7.47;;;1.35;;
49592;SDS011;35499;51.482;4.264;2023-02-18T11:51:17;7.15;;;1.25;;
49592;SDS011;35499;51.482;4.264;2023-02-18T11:53:53;9.63;;;1.52;;
49592;SDS011;35499;51.482;4.264;2023-02-18T11:56:18;10.32;;;1.23;;
49592;SDS011;35499;51.482;4.264;2023-02-18T11:58:44;6.07;;;1.17;;
49592;SDS011;35499;51.482;4.264;2023-02-18T12:01:14;5.88;;;1.30;;
49592;SDS011;35499;51.482;4.264;2023-02-18T12:06:21;10.70;;;1.77;;
49592;SDS011;35499;51.482;4.264;2023-02-18T12:08:52;5.70;;;1.10;;
49592;SDS011;35499;51.482;4.264;2023-02-18T12:11:28;7.38;;;1.27;;
49592;SDS011;35499;51.482;4.264;2023-02-18T12:13:57;11.57;;;1.52;;
49592;SDS011;35499;51.482;4.264;2023-02-18T12:19:04;8.38;;;1.50;;
49592;SDS011;35499;51.482;4.264;2023-02-18T12:21:51;11.02;;;1.90;;
49592;SDS011;35499;51.482;4.264;2023-02-18T12:27:34;7.70;;;1.30;;
49592;SDS011;35499;51.482;4.264;2023-02-18T12:30:28;8.57;;;1.30;;
49592;SDS011;35499;51.482;4.264;2023-02-18T12:33:18;8.98;;;1.40;;
49592;SDS011;35499;51.482;4.264;2023-02-18T12:42:26;4.75;;;0.82;;
49592;SDS011;35499;51.482;4.264;2023-02-18T12:44:37;6.35;;;1.13;;
49592;SDS011;35499;51.482;4.264;2023-02-18T13:06:49;4.13;;;1.38;;
49592;SDS011;35499;51.482;4.264;2023-02-18T13:14:50;9.13;;;1.35;;
49592;SDS011;35499;51.482;4.264;2023-02-18T13:17:21;4.82;;;0.75;;
49592;SDS011;35499;51.482;4.264;2023-02-18T13:19:56;9.18;;;1.48;;
49592;SDS011;35499;51.482;4.264;2023-02-18T13:22:26;8.15;;;1.02;;
49592;SDS011;35499;51.482;4.264;2023-02-18T13:24:54;7.85;;;1.58;;
49592;SDS011;35499;51.482;4.264;2023-02-18T13:33:18;5.22;;;1.02;;
49592;SDS011;35499;51.482;4.264;2023-02-18T13:39:06;10.90;;;1.60;;
49592;SDS011;35499;51.482;4.264;2023-02-18T13:41:38;6.80;;;1.65;;
49592;SDS011;35499;51.482;4.264;2023-02-18T13:44:09;6.85;;;1.38;;
49592;SDS011;35499;51.482;4.264;2023-02-18T13:46:46;6.68;;;1.48;;
49592;SDS011;35499;51.482;4.264;2023-02-18T13:49:12;8.15;;;1.80;;
49592;SDS011;35499;51.482;4.264;2023-02-18T13:54:05;5.67;;;1.40;;
49592;SDS011;35499;51.482;4.264;2023-02-18T13:56:43;11.73;;;1.85;;
49592;SDS011;35499;51.482;4.264;2023-02-18T14:09:54;5.38;;;1.23;;
49592;SDS011;35499;51.482;4.264;2023-02-18T14:13:22;5.65;;;1.10;;
49592;SDS011;35499;51.482;4.264;2023-02-18T14:17:48;5.93;;;1.10;;
49592;SDS011;35499;51.482;4.264;2023-02-18T14:22:53;10.57;;;1.30;;
49592;SDS011;35499;51.482;4.264;2023-02-18T14:27:44;7.43;;;1.27;;
49592;SDS011;35499;51.482;4.264;2023-02-18T14:30:23;8.20;;;1.17;;
49592;SDS011;35499;51.482;4.264;2023-02-18T14:32:55;5.20;;;1.48;;
49592;SDS011;35499;51.482;4.264;2023-02-18T14:49:16;8.00;;;1.30;;
49592;SDS011;35499;51.482;4.264;2023-02-18T14:51:51;5.65;;;1.23;;
49592;SDS011;35499;51.482;4.264;2023-02-18T14:54:18;10.75;;;1.23;;
49592;SDS011;35499;51.482;4.264;2023-02-18T14:59:33;9.48;;;1.70;;
49592;SDS011;35499;51.482;4.264;2023-02-18T15:02:00;9.32;;;2.35;;
49592;SDS011;35499;51.482;4.264;2023-02-18T15:04:25;6.43;;;1.60;;
49592;SDS011;35499;51.482;4.264;2023-02-18T15:07:01;7.30;;;1.90;;
49592;SDS011;35499;51.482;4.264;2023-02-18T15:09:28;8.52;;;2.47;;
49592;SDS011;35499;51.482;4.264;2023-02-18T15:11:55;9.10;;;2.75;;
49592;SDS011;35499;51.482;4.264;2023-02-18T15:14:33;13.38;;;3.30;;
49592;SDS011;35499;51.482;4.264;2023-02-18T15:17:01;7.63;;;3.60;;
49592;SDS011;35499;51.482;4.264;2023-02-18T15:19:37;14.68;;;4.72;;
49592;SDS011;35499;51.482;4.264;2023-02-18T15:22:06;10.05;;;4.18;;
49592;SDS011;35499;51.482;4.264;2023-02-18T15:24:41;13.52;;;4.60;;
49592;SDS011;35499;51.482;4.264;2023-02-18T15:27:11;12.57;;;4.28;;
49592;SDS011;35499;51.482;4.264;2023-02-18T15:29:39;8.05;;;4.00;;
49592;SDS011;35499;51.482;4.264;2023-02-18T15:32:13;16.13;;;4.68;;
49592;SDS011;35499;51.482;4.264;2023-02-18T15:34:41;12.75;;;4.68;;
49592;SDS011;35499;51.482;4.264;2023-02-18T15:37:09;13.60;;;4.63;;
49592;SDS011;35499;51.482;4.264;2023-02-18T15:39:36;14.82;;;4.70;;
49592;SDS011;35499;51.482;4.264;2023-02-18T15:42:13;12.20;;;4.70;;
49592;SDS011;35499;51.482;4.264;2023-02-18T15:44:46;17.88;;;4.75;;
49592;SDS011;35499;51.482;4.264;2023-02-18T15:47:14;14.45;;;5.05;;
49592;SDS011;35499;51.482;4.264;2023-02-18T15:49:43;9.98;;;4.00;;
49592;SDS011;35499;51.482;4.264;2023-02-18T15:52:11;13.10;;;4.30;;
49592;SDS011;35499;51.482;4.264;2023-02-18T15:54:38;10.75;;;3.88;;
49592;SDS011;35499;51.482;4.264;2023-02-18T15:57:05;10.32;;;4.03;;
49592;SDS011;35499;51.482;4.264;2023-02-18T15:59:33;14.82;;;4.03;;
49592;SDS011;35499;51.482;4.264;2023-02-18T16:02:15;11.77;;;4.18;;
49592;SDS011;35499;51.482;4.264;2023-02-18T16:04:51;14.07;;;4.07;;
49592;SDS011;35499;51.482;4.264;2023-02-18T16:07:26;13.75;;;3.80;;
49592;SDS011;35499;51.482;4.264;2023-02-18T16:10:07;12.95;;;3.80;;
49592;SDS011;35499;51.482;4.264;2023-02-18T16:12:50;19.08;;;3.95;;
49592;SDS011;35499;51.482;4.264;2023-02-18T16:15:23;18.38;;;4.22;;
49592;SDS011;35499;51.482;4.264;2023-02-18T16:17:51;9.15;;;3.10;;
49592;SDS011;35499;51.482;4.264;2023-02-18T16:20:30;12.10;;;4.50;;
49592;SDS011;35499;51.482;4.264;2023-02-18T16:22:59;9.73;;;3.38;;
49592;SDS011;35499;51.482;4.264;2023-02-18T16:25:47;13.80;;;3.97;;
49592;SDS011;35499;51.482;4.264;2023-02-18T16:28:21;13.85;;;3.35;;
49592;SDS011;35499;51.482;4.264;2023-02-18T16:30:49;12.07;;;3.50;;
49592;SDS011;35499;51.482;4.264;2023-02-18T16:33:14;19.23;;;5.10;;
49592;SDS011;35499;51.482;4.264;2023-02-18T16:35:39;14.77;;;4.10;;
49592;SDS011;35499;51.482;4.264;2023-02-18T16:38:06;11.05;;;4.10;;
49592;SDS011;35499;51.482;4.264;2023-02-18T16:40:32;10.80;;;4.68;;
49592;SDS011;35499;51.482;4.264;2023-02-18T16:43:05;13.65;;;5.18;;
49592;SDS011;35499;51.482;4.264;2023-02-18T16:45:41;15.23;;;4.70;;
49592;SDS011;35499;51.482;4.264;2023-02-18T16:48:12;11.98;;;4.97;;
49592;SDS011;35499;51.482;4.264;2023-02-18T16:50:43;15.63;;;6.55;;
49592;SDS011;35499;51.482;4.264;2023-02-18T16:53:10;17.52;;;6.18;;
49592;SDS011;35499;51.482;4.264;2023-02-18T16:55:37;16.95;;;5.65;;
49592;SDS011;35499;51.482;4.264;2023-02-18T16:58:02;19.93;;;6.40;;
49592;SDS011;35499;51.482;4.264;2023-02-18T17:00:27;15.65;;;4.53;;
49592;SDS011;35499;51.482;4.264;2023-02-18T17:02:54;13.57;;;4.55;;
49592;SDS011;35499;51.482;4.264;2023-02-18T17:05:24;12.77;;;4.80;;
49592;SDS011;35499;51.482;4.264;2023-02-18T17:07:51;13.73;;;4.55;;
49592;SDS011;35499;51.482;4.264;2023-02-18T17:10:16;13.97;;;5.00;;
49592;SDS011;35499;51.482;4.264;2023-02-18T17:12:42;14.20;;;4.93;;